East Charleston, Vermont
Current Conditions -  °F | °C
As of 4:55 PM on Saturday 25 Oct 2014 (Local Time) from KEFK Reporting Station
Broken Clouds Broken Clouds  
Wind Chill: 53°   Ceiling: 5500
Heat Index: 53°   Visibility: 10mi
Dew Point: 43°   Wind: 3mph
Humidity: 69%   Direction: 190°S
Pressure: 29.55"   Gusts: NA
Location:  44.84°N, 71.99°W
Report Text: KEFK 252055Z AUTO 19003KT 10SM SCT044 SCT050 BKN055 12/06 A2955 RMK AO2 T01170061
Loading
Personal Weather Stations






























Interactive Weather Map
Tropical Storm Tracking
New forecast layout! Learn more

10-Day Weather Forecast

Advertisements
Track Severe Weather on mobile